Time;durP1;ratioP1;P1;durP2;ratioP2;P2;SDS_P1;SDS_P2;PMS_P1;PMS_P2;Temp;Humidity;BMP_temperature;BMP_pressure;BME280_temperature;BME280_humidity;BME280_pressure;Samples;Min_cycle;Max_cycle;Signal;HPM_P1;HPM_P2
2021/08/03 00:02:23;;;;;;;5.35;3.25;;;14.90;99.90;;;;;;4950516;28;20032;-89
2021/08/03 00:04:53;;;;;;;4.82;3.97;;;14.90;99.90;;;;;;4952203;29;20141;-89
2021/08/03 00:07:19;;;;;;;;;;;14.90;99.90;;;;;;4947109;29;20403;-90
2021/08/03 00:09:46;;;;;;;5.10;3.53;;;14.90;99.90;;;;;;4954362;28;19914;-88
2021/08/03 00:12:14;;;;;;;6.88;3.63;;;14.90;99.90;;;;;;4951355;28;20454;-88
2021/08/03 00:14:47;;;;;;;5.25;3.45;;;14.90;99.90;;;;;;4950382;29;20123;-89
2021/08/03 00:17:16;;;;;;;5.45;3.30;;;15.00;99.90;;;;;;4951129;28;20055;-90
2021/08/03 00:19:43;;;;;;;6.77;3.93;;;15.00;99.90;;;;;;4952727;29;20042;-89
2021/08/03 00:22:09;;;;;;;4.93;4.10;;;15.10;99.90;;;;;;4950166;29;20325;-90
2021/08/03 00:24:35;;;;;;;5.45;3.85;;;15.10;99.90;;;;;;4952772;29;20027;-90
2021/08/03 00:27:03;;;;;;;4.70;3.92;;;15.10;99.90;;;;;;4950038;29;20050;-90
2021/08/03 00:29:29;;;;;;;4.97;4.18;;;15.10;99.90;;;;;;4950563;29;20430;-91
2021/08/03 00:31:56;;;;;;;7.25;4.50;;;15.10;99.90;;;;;;4952452;28;20024;-90
2021/08/03 00:34:24;;;;;;;8.95;4.10;;;15.10;99.90;;;;;;4948443;28;20051;-90
2021/08/03 00:36:49;;;;;;;6.53;4.30;;;15.20;99.90;;;;;;4948206;29;20401;-89
2021/08/03 00:39:15;;;;;;;6.88;4.43;;;15.20;99.90;;;;;;4950792;29;20102;-89
2021/08/03 00:42:02;;;;;;;7.43;4.65;;;15.20;99.90;;;;;;4948218;29;20122;-89
2021/08/03 00:44:50;;;;;;;4.72;3.78;;;15.20;99.90;;;;;;4952687;29;20023;-90
2021/08/03 00:47:18;;;;;;;7.60;4.80;;;15.10;99.90;;;;;;4935579;29;20044;-88
2021/08/03 00:49:44;;;;;;;5.10;4.55;;;15.20;99.90;;;;;;4951808;29;20126;-89
2021/08/03 00:52:12;;;;;;;7.05;4.47;;;15.20;99.90;;;;;;4964857;28;20039;-89
2021/08/03 00:54:38;;;;;;;4.03;3.63;;;15.20;99.90;;;;;;4947224;29;20039;-89
2021/08/03 00:57:06;;;;;;;5.35;4.28;;;15.20;99.90;;;;;;4952073;29;20116;-89
2021/08/03 00:59:32;;;;;;;6.45;4.30;;;15.20;99.90;;;;;;4952157;28;20031;-89
2021/08/03 01:01:58;;;;;;;9.05;4.55;;;15.20;99.90;;;;;;4951031;29;20064;-90
2021/08/03 01:04:24;;;;;;;4.47;4.05;;;15.20;99.90;;;;;;4952901;29;20031;-89
2021/08/03 01:07:22;;;;;;;7.05;4.28;;;15.20;99.90;;;;;;4952141;28;20039;-90
2021/08/03 01:10:11;;;;;;;4.63;3.75;;;15.20;99.90;;;;;;4936491;29;20039;-89
2021/08/03 01:12:43;;;;;;;7.35;3.70;;;15.20;99.90;;;;;;4950375;29;20550;-89
2021/08/03 01:15:25;;;;;;;7.05;4.00;;;15.20;99.90;;;;;;4948789;28;20392;-88
2021/08/03 01:18:15;;;;;;;7.68;4.35;;;15.30;99.90;;;;;;4950232;28;20562;-90
2021/08/03 01:20:44;;;;;;;;;;;15.20;99.90;;;;;;4951153;29;20035;-89
2021/08/03 01:23:30;;;;;;;7.22;4.13;;;15.20;99.90;;;;;;4950820;29;19965;-90
2021/08/03 01:26:04;;;;;;;5.10;3.88;;;15.20;99.90;;;;;;4946487;29;20042;-91
2021/08/03 01:28:40;;;;;;;5.05;4.40;;;15.20;99.90;;;;;;4951980;29;20122;-89
2021/08/03 01:31:19;;;;;;;8.48;4.65;;;15.20;99.90;;;;;;4951993;29;20031;-90
2021/08/03 01:33:53;;;;;;;8.27;4.45;;;15.20;99.90;;;;;;4949715;29;20063;-90
2021/08/03 01:36:19;;;;;;;6.32;4.05;;;15.20;99.90;;;;;;4950555;29;20024;-89
2021/08/03 01:38:47;;;;;;;5.25;3.72;;;15.20;99.90;;;;;;4951355;28;20393;-89
2021/08/03 01:41:17;;;;;;;5.22;4.30;;;15.10;99.90;;;;;;4949467;29;20034;-89
2021/08/03 01:43:46;;;;;;;4.80;3.72;;;15.10;99.90;;;;;;4952993;28;20027;-90
2021/08/03 01:46:15;;;;;;;5.47;4.63;;;15.00;99.90;;;;;;4952438;29;20495;-88
2021/08/03 01:48:44;;;;;;;5.43;4.32;;;15.00;99.90;;;;;;4951077;29;20050;-89
2021/08/03 01:51:09;;;;;;;4.65;3.90;;;14.90;99.90;;;;;;4951689;29;20023;-89
2021/08/03 01:53:37;;;;;;;5.68;4.68;;;14.80;99.90;;;;;;4951715;28;20042;-89
2021/08/03 01:56:04;;;;;;;5.20;4.05;;;14.80;99.90;;;;;;4952255;29;20507;-89
2021/08/03 01:58:31;;;;;;;5.80;4.32;;;14.80;99.90;;;;;;4953183;29;20027;-89
2021/08/03 02:00:57;;;;;;;5.80;4.20;;;14.80;99.90;;;;;;4951504;29;20054;-89
2021/08/03 02:03:24;;;;;;;5.20;4.43;;;14.70;99.90;;;;;;4949475;28;20031;-89
2021/08/03 02:05:51;;;;;;;7.57;4.57;;;14.60;99.90;;;;;;4951630;29;20368;-89
2021/08/03 02:08:19;;;;;;;5.03;3.80;;;14.50;99.90;;;;;;4950282;29;20099;-89
2021/08/03 02:10:45;;;;;;;6.00;4.50;;;14.50;99.90;;;;;;4951026;29;20034;-90
2021/08/03 02:13:12;;;;;;;6.25;4.22;;;14.50;99.90;;;;;;4952713;29;20114;-88
2021/08/03 02:15:38;;;;;;;6.32;4.55;;;14.50;99.90;;;;;;4951956;29;20028;-90
2021/08/03 02:18:04;;;;;;;4.55;4.15;;;14.40;99.90;;;;;;4951065;29;20487;-89
2021/08/03 02:20:29;;;;;;;5.88;4.63;;;14.40;99.90;;;;;;4953338;28;20439;-90
2021/08/03 02:22:55;;;;;;;6.25;4.43;;;14.40;99.90;;;;;;4954488;29;20027;-90
2021/08/03 02:25:21;;;;;;;5.20;4.00;;;14.30;99.90;;;;;;4953964;29;20468;-90
2021/08/03 02:27:46;;;;;;;5.35;4.40;;;14.30;99.90;;;;;;4954432;29;20039;-90
2021/08/03 02:30:12;;;;;;;5.88;4.15;;;14.20;99.90;;;;;;4953626;29;20051;-89
2021/08/03 02:32:46;;;;;;;5.18;4.25;;;14.20;99.90;;;;;;4952931;29;20198;-89
2021/08/03 02:35:23;;;;;;;4.43;3.75;;;14.20;99.90;;;;;;4938454;29;20035;-90
2021/08/03 02:38:00;;;;;;;4.47;3.58;;;14.10;99.90;;;;;;4954298;29;20042;-90
2021/08/03 02:40:26;;;;;;;4.50;4.03;;;14.10;99.90;;;;;;4951053;29;20086;-90
2021/08/03 02:42:54;;;;;;;5.65;4.40;;;14.10;99.90;;;;;;4952326;29;20099;-90
2021/08/03 02:45:21;;;;;;;5.40;4.32;;;14.00;99.90;;;;;;4954513;29;20035;-89
2021/08/03 02:47:52;;;;;;;7.03;4.13;;;14.00;99.90;;;;;;4950410;29;20020;-89
2021/08/03 02:50:21;;;;;;;7.32;5.03;;;14.00;99.90;;;;;;4952210;28;20099;-88
2021/08/03 02:52:51;;;;;;;4.85;4.40;;;13.90;99.90;;;;;;4952788;29;20099;-89
2021/08/03 02:55:17;;;;;;;;;;;13.90;99.90;;;;;;4954524;29;20050;-89
2021/08/03 02:57:46;;;;;;;6.00;4.22;;;13.80;99.90;;;;;;4953999;28;19914;-88
2021/08/03 03:00:13;;;;;;;8.02;4.35;;;13.70;99.90;;;;;;4954582;29;20028;-90
2021/08/03 03:02:44;;;;;;;6.30;4.50;;;13.80;99.90;;;;;;4952841;28;20439;-88
2021/08/03 03:05:09;;;;;;;;;;;13.80;99.90;;;;;;4948540;29;20479;-89
2021/08/03 03:07:46;;;;;;;7.88;4.90;;;13.80;99.90;;;;;;4956475;28;19914;-89
2021/08/03 03:10:25;;;;;;;7.78;4.68;;;13.80;99.90;;;;;;4955432;29;20524;-88
2021/08/03 03:12:57;;;;;;;5.97;4.50;;;13.70;99.90;;;;;;4954188;29;20035;-88
2021/08/03 03:15:24;;;;;;;8.63;4.07;;;13.70;99.90;;;;;;4953778;28;20066;-89
2021/08/03 03:17:51;;;;;;;5.85;4.38;;;13.80;99.90;;;;;;4954511;28;20114;-89
2021/08/03 03:20:19;;;;;;;6.00;3.88;;;13.70;99.90;;;;;;4954511;29;20110;-89
2021/08/03 03:22:47;;;;;;;8.35;4.75;;;13.70;99.90;;;;;;4954728;29;20034;-88
2021/08/03 03:25:19;;;;;;;4.82;4.32;;;13.70;99.90;;;;;;4955582;29;20050;-89
2021/08/03 03:27:48;;;;;;;6.88;4.18;;;13.70;99.90;;;;;;4951995;29;20065;-89
2021/08/03 03:30:16;;;;;;;4.78;4.28;;;13.70;99.90;;;;;;4953615;28;20534;-90
2021/08/03 03:32:44;;;;;;;5.13;3.75;;;13.80;99.90;;;;;;4953228;28;20047;-89
2021/08/03 03:35:12;;;;;;;4.82;4.07;;;13.80;99.90;;;;;;4951275;29;20500;-89
2021/08/03 03:37:40;;;;;;;6.00;4.20;;;13.80;99.90;;;;;;4966822;28;20380;-89
2021/08/03 03:40:06;;;;;;;7.25;4.50;;;13.90;99.90;;;;;;4954064;29;20030;-89
2021/08/03 03:42:34;;;;;;;5.72;4.28;;;13.90;99.90;;;;;;4951623;29;20041;-89
2021/08/03 03:45:02;;;;;;;5.03;4.60;;;13.90;99.90;;;;;;4953528;29;20031;-89
2021/08/03 03:47:34;;;;;;;6.15;4.30;;;14.00;99.90;;;;;;4952197;28;20079;-88
2021/08/03 03:50:15;;;;;;;6.47;4.72;;;14.00;99.90;;;;;;4952277;29;20035;-89
2021/08/03 03:52:49;;;;;;;5.28;4.25;;;14.00;99.90;;;;;;4938857;29;21283;-88
2021/08/03 03:55:20;;;;;;;8.25;5.15;;;14.00;99.90;;;;;;4952332;29;20027;-88
2021/08/03 03:57:46;;;;;;;7.70;4.70;;;14.00;99.90;;;;;;4951684;29;20042;-88
2021/08/03 04:00:14;;;;;;;8.05;4.40;;;14.10;99.90;;;;;;4953312;28;20038;-89
2021/08/03 04:02:42;;;;;;;9.05;4.93;;;14.20;99.90;;;;;;4951475;29;20027;-90
2021/08/03 04:05:14;;;;;;;5.20;4.10;;;14.50;99.90;;;;;;4947015;28;20035;-90
2021/08/03 04:07:41;;;;;;;4.95;4.32;;;14.60;99.90;;;;;;4952466;29;20035;-90
2021/08/03 04:10:10;;;;;;;4.95;4.45;;;14.70;99.90;;;;;;4952730;29;20039;-89
2021/08/03 04:12:36;;;;;;;6.25;4.38;;;14.70;99.90;;;;;;4952905;28;20027;-89
2021/08/03 04:15:03;;;;;;;6.63;4.57;;;14.70;99.90;;;;;;4952945;29;20054;-88
2021/08/03 04:17:29;;;;;;;6.22;4.75;;;14.90;99.90;;;;;;4951648;28;20024;-90
2021/08/03 04:19:55;;;;;;;5.78;3.83;;;15.50;99.90;;;;;;4953480;28;20435;-90
2021/08/03 04:22:20;;;;;;;8.35;4.40;;;16.40;99.90;;;;;;4951681;29;20506;-89
2021/08/03 04:24:46;;;;;;;4.55;3.78;;;17.10;99.90;;;;;;4951256;29;20391;-90
2021/08/03 04:27:12;;;;;;;5.85;3.58;;;17.90;99.90;;;;;;4950542;29;20074;-90
2021/08/03 04:29:37;;;;;;;8.40;3.90;;;18.50;99.90;;;;;;4952573;28;20042;-90
2021/08/03 04:32:04;;;;;;;6.75;3.50;;;19.00;99.90;;;;;;4952450;28;20036;-89
2021/08/03 04:34:31;;;;;;;6.30;3.65;;;19.50;99.90;;;;;;4954039;29;20055;-90
2021/08/03 04:36:58;;;;;;;5.40;3.28;;;20.00;99.90;;;;;;4950783;28;20483;-89
2021/08/03 04:39:24;;;;;;;5.85;3.08;;;20.10;99.90;;;;;;4948272;29;20047;-89
2021/08/03 04:41:49;;;;;;;6.72;3.38;;;19.70;99.90;;;;;;4952571;28;20083;-90
2021/08/03 04:44:15;;;;;;;6.72;3.67;;;19.20;99.90;;;;;;4950795;29;20038;-89
2021/08/03 04:46:41;;;;;;;5.45;3.10;;;18.70;99.90;;;;;;4952912;29;20031;-90
2021/08/03 04:49:07;;;;;;;4.72;3.17;;;18.20;99.90;;;;;;4952813;29;20038;-88
2021/08/03 04:51:33;;;;;;;7.13;3.03;;;17.80;99.90;;;;;;4950732;29;20023;-89
2021/08/03 04:53:59;;;;;;;10.88;3.15;;;17.50;99.90;;;;;;4951892;29;20038;-89
2021/08/03 04:56:24;;;;;;;5.10;2.88;;;17.20;99.90;;;;;;4950838;29;20515;-90
2021/08/03 04:58:50;;;;;;;5.32;3.35;;;17.10;99.90;;;;;;4951416;29;20466;-89
2021/08/03 05:01:15;;;;;;;6.68;2.80;;;17.00;99.90;;;;;;4951685;28;20055;-90
2021/08/03 05:03:41;;;;;;;7.68;2.90;;;16.80;99.90;;;;;;4952187;29;20134;-89
2021/08/03 05:06:08;;;;;;;6.13;2.72;;;16.80;99.90;;;;;;4951499;28;20023;-88
2021/08/03 05:08:33;;;;;;;6.13;2.65;;;16.80;99.90;;;;;;4951425;29;20071;-89
2021/08/03 05:10:59;;;;;;;4.40;2.22;;;16.80;99.90;;;;;;4952029;29;20077;-88
2021/08/03 05:13:25;;;;;;;9.43;3.10;;;16.80;99.90;;;;;;4952666;29;20166;-89
2021/08/03 05:15:51;;;;;;;3.55;2.28;;;16.80;99.90;;;;;;4950684;29;20035;-88
2021/08/03 05:18:17;;;;;;;6.50;3.00;;;16.80;99.90;;;;;;4955126;29;20028;-90
2021/08/03 05:20:44;;;;;;;3.70;2.45;;;16.90;99.90;;;;;;4954851;28;20464;-89
2021/08/03 05:23:09;;;;;;;6.38;2.70;;;16.90;99.90;;;;;;4950627;28;20023;-88
2021/08/03 05:25:35;;;;;;;3.83;2.78;;;17.00;99.90;;;;;;4953944;29;20447;-89
2021/08/03 05:28:01;;;;;;;4.40;2.25;;;17.10;99.90;;;;;;4950370;28;20139;-89
2021/08/03 05:30:27;;;;;;;5.82;2.33;;;17.10;99.90;;;;;;4950351;29;20170;-89
2021/08/03 05:32:52;;;;;;;7.03;2.20;;;17.20;99.90;;;;;;4950004;29;20043;-90
2021/08/03 05:35:18;;;;;;;4.60;2.40;;;17.30;99.90;;;;;;4950233;28;20044;-90
2021/08/03 05:37:44;;;;;;;6.78;2.50;;;17.30;99.90;;;;;;4952680;28;20031;-89
2021/08/03 05:40:12;;;;;;;3.63;2.13;;;17.40;99.90;;;;;;4953044;29;20062;-89
2021/08/03 05:42:37;;;;;;;3.88;2.55;;;17.50;99.90;;;;;;4950071;28;20038;-90
2021/08/03 05:45:03;;;;;;;7.90;2.60;;;17.50;99.90;;;;;;4949655;28;20027;-90
2021/08/03 05:47:30;;;;;;;5.32;2.08;;;17.60;99.90;;;;;;4952611;28;20031;-90
2021/08/03 05:49:56;;;;;;;7.45;2.30;;;17.70;99.90;;;;;;4952145;28;20043;-89
2021/08/03 05:52:22;;;;;;;6.65;2.08;;;17.70;99.90;;;;;;4953013;29;20086;-89
2021/08/03 05:54:47;;;;;;;3.85;2.45;;;17.90;99.90;;;;;;4951378;29;20038;-90
2021/08/03 05:57:13;;;;;;;7.85;1.90;;;18.00;99.90;;;;;;4953643;29;20042;-89
2021/08/03 05:59:38;;;;;;;4.95;1.80;;;18.00;99.90;;;;;;4957187;28;20415;-88
2021/08/03 06:02:04;;;;;;;6.43;1.98;;;18.00;99.90;;;;;;4953954;29;20032;-89
2021/08/03 06:04:30;;;;;;;6.38;1.85;;;18.10;99.90;;;;;;4956883;29;20035;-89
2021/08/03 06:06:57;;;;;;;6.50;1.90;;;18.00;99.90;;;;;;4952561;28;20070;-89
2021/08/03 06:09:25;;;;;;;6.43;2.05;;;18.10;99.90;;;;;;4953719;28;20451;-90
2021/08/03 06:11:52;;;;;;;3.00;1.67;;;18.10;99.90;;;;;;4953944;29;20024;-89
2021/08/03 06:14:30;;;;;;;3.78;1.70;;;18.20;99.90;;;;;;4953525;29;20076;-89
2021/08/03 06:16:57;;;;;;;5.43;2.00;;;18.30;99.90;;;;;;4953539;29;20058;-91
2021/08/03 06:19:26;;;;;;;3.72;1.73;;;18.30;99.90;;;;;;4956114;29;20102;-91
2021/08/03 06:21:56;;;;;;;2.97;1.40;;;18.40;99.90;;;;;;4953417;29;20028;-91
2021/08/03 06:24:23;;;;;;;4.25;1.60;;;18.40;99.90;;;;;;4953493;29;20027;-89
2021/08/03 06:26:49;;;;;;;2.88;1.63;;;18.50;99.90;;;;;;4953585;28;20034;-89
2021/08/03 06:29:17;;;;;;;8.02;2.33;;;18.50;99.90;;;;;;4954816;29;20094;-89
2021/08/03 06:31:43;;;;;;;4.97;1.88;;;18.50;99.90;;;;;;4956225;29;20159;-88
2021/08/03 06:34:11;;;;;;;5.47;1.92;;;18.60;99.90;;;;;;4953938;29;20491;-90
2021/08/03 06:36:37;;;;;;;4.60;1.58;;;18.70;99.90;;;;;;4956800;28;20074;-90
2021/08/03 06:39:02;;;;;;;6.72;2.08;;;18.70;99.90;;;;;;4955117;29;20071;-89
2021/08/03 06:41:41;;;;;;;4.32;1.67;;;18.90;99.90;;;;;;4955225;28;20051;-89
2021/08/03 06:44:26;;;;;;;4.60;1.88;;;18.90;99.90;;;;;;4952739;29;20506;-89
2021/08/03 06:46:55;;;;;;;5.55;1.40;;;19.00;99.90;;;;;;4953195;29;20078;-91
2021/08/03 06:49:23;;;;;;;5.07;1.77;;;19.00;99.90;;;;;;4968757;28;20535;-89
2021/08/03 06:51:53;;;;;;;5.10;1.98;;;19.00;99.90;;;;;;4954748;28;20051;-90
2021/08/03 06:54:22;;;;;;;3.97;1.15;;;19.10;99.90;;;;;;4954803;29;20159;-89
2021/08/03 06:56:53;;;;;;;3.97;1.27;;;19.20;99.90;;;;;;4959581;28;20113;-89
2021/08/03 06:59:32;;;;;;;3.75;1.38;;;19.30;99.90;;;;;;4954452;28;20514;-90
2021/08/03 07:02:01;;;;;;;3.90;1.52;;;19.40;99.90;;;;;;4955254;29;20042;-90
2021/08/03 07:04:46;;;;;;;2.45;1.38;;;19.40;99.90;;;;;;4953615;29;20035;-90
2021/08/03 07:07:14;;;;;;;6.22;1.65;;;19.50;99.90;;;;;;4949722;29;20023;-91
2021/08/03 07:09:43;;;;;;;3.95;1.00;;;19.60;99.90;;;;;;4952840;28;20035;-89
2021/08/03 07:12:13;;;;;;;3.75;1.10;;;19.70;99.90;;;;;;4952789;29;20027;-88
2021/08/03 07:14:39;;;;;;;3.42;1.00;;;19.80;99.90;;;;;;4949132;28;20042;-89
2021/08/03 07:17:07;;;;;;;2.90;1.17;;;19.90;99.90;;;;;;4950319;29;20024;-91
2021/08/03 07:19:34;;;;;;;5.13;1.00;;;19.80;99.90;;;;;;4951883;29;20130;-88
2021/08/03 07:22:01;;;;;;;6.93;1.50;;;19.80;99.90;;;;;;4947739;28;20042;-89
2021/08/03 07:24:28;;;;;;;2.42;1.10;;;19.80;99.90;;;;;;4939623;28;20032;-89
2021/08/03 07:26:54;;;;;;;4.82;1.30;;;19.90;99.90;;;;;;4948795;29;20081;-89
2021/08/03 07:29:19;;;;;;;4.25;1.00;;;19.80;99.90;;;;;;4951194;28;20043;-90
2021/08/03 07:31:46;;;;;;;4.40;0.88;;;20.00;99.90;;;;;;4953928;28;20028;-88
2021/08/03 07:34:13;;;;;;;5.55;1.17;;;20.10;99.90;;;;;;4951578;29;20038;-92
2021/08/03 07:36:39;;;;;;;6.10;1.55;;;20.10;99.90;;;;;;4950408;28;20023;-89
2021/08/03 07:39:06;;;;;;;3.28;1.40;;;20.20;99.90;;;;;;4952950;28;20046;-90
2021/08/03 07:41:33;;;;;;;3.03;1.10;;;20.30;99.90;;;;;;4950952;28;20073;-90
2021/08/03 07:43:59;;;;;;;5.63;1.08;;;20.40;99.90;;;;;;4949558;29;20485;-89
2021/08/03 07:46:25;;;;;;;5.40;0.90;;;20.50;99.90;;;;;;4951600;28;20107;-88
2021/08/03 07:48:51;;;;;;;3.38;0.60;;;20.60;99.90;;;;;;4953590;28;20081;-90
2021/08/03 07:51:18;;;;;;;5.70;1.58;;;20.60;99.90;;;;;;4949037;29;20388;-89
2021/08/03 07:53:44;;;;;;;7.57;1.23;;;20.70;99.90;;;;;;4949272;28;20023;-90
2021/08/03 07:56:16;;;;;;;3.00;0.88;;;20.80;99.90;;;;;;4955567;28;20086;-90
2021/08/03 07:58:42;;;;;;;2.80;0.85;;;20.80;99.90;;;;;;4950575;28;20046;-89
2021/08/03 08:01:08;;;;;;;3.55;1.30;;;20.90;99.90;;;;;;4949982;29;20053;-91
2021/08/03 08:03:35;;;;;;;2.17;0.90;;;20.90;99.90;;;;;;4951001;28;20038;-89
2021/08/03 08:06:02;;;;;;;5.72;1.25;;;20.90;99.90;;;;;;4949717;29;20022;-89
2021/08/03 08:08:28;;;;;;;3.55;1.35;;;20.90;99.90;;;;;;4952030;28;20043;-89
2021/08/03 08:10:54;;;;;;;4.32;1.10;;;21.00;98.60;;;;;;4952959;28;20021;-91
2021/08/03 08:13:19;;;;;;;2.25;0.95;;;21.00;97.90;;;;;;4951869;28;20028;-90
2021/08/03 08:15:45;;;;;;;2.30;0.90;;;21.10;98.20;;;;;;4949362;29;20529;-89
2021/08/03 08:18:11;;;;;;;2.00;0.68;;;21.10;99.00;;;;;;4950302;28;20075;-91
2021/08/03 08:20:40;;;;;;;2.67;0.77;;;21.20;98.10;;;;;;4948316;28;20026;-91
2021/08/03 08:23:06;;;;;;;5.13;1.27;;;21.30;98.10;;;;;;4951322;28;20045;-89
2021/08/03 08:25:32;;;;;;;3.00;0.80;;;21.30;96.50;;;;;;4951963;29;20035;-89
2021/08/03 08:27:58;;;;;;;2.92;0.80;;;21.50;96.80;;;;;;4941147;29;20057;-91
2021/08/03 08:30:24;;;;;;;2.20;0.95;;;21.60;96.70;;;;;;4952239;28;20115;-91
2021/08/03 08:32:50;;;;;;;3.00;0.63;;;21.60;96.10;;;;;;4952460;28;20150;-92
2021/08/03 08:35:16;;;;;;;3.08;1.33;;;21.50;94.80;;;;;;4949705;28;20066;-92
2021/08/03 08:37:42;;;;;;;2.80;1.05;;;21.70;96.60;;;;;;4958229;28;20034;-90
2021/08/03 08:40:09;;;;;;;2.65;0.70;;;21.70;95.70;;;;;;4961391;28;20070;-89
2021/08/03 08:42:35;;;;;;;3.95;1.13;;;21.90;96.80;;;;;;4953487;29;20855;-89
2021/08/03 08:45:02;;;;;;;3.40;0.77;;;22.00;94.90;;;;;;4949049;28;20483;-89
2021/08/03 08:47:29;;;;;;;2.42;0.98;;;22.10;93.50;;;;;;4950718;29;20065;-90
2021/08/03 08:50:02;;;;;;;4.38;0.95;;;22.30;92.50;;;;;;4951430;28;20070;-89
2021/08/03 08:52:28;;;;;;;16.25;2.00;;;22.20;93.10;;;;;;4952564;28;20041;-91
2021/08/03 08:54:54;;;;;;;5.50;1.27;;;22.20;94.30;;;;;;4950590;28;20020;-90
2021/08/03 08:57:20;;;;;;;3.75;0.95;;;22.10;92.80;;;;;;4950832;29;20518;-90
2021/08/03 08:59:45;;;;;;;4.40;0.95;;;22.10;93.70;;;;;;4950113;29;20154;-89
2021/08/03 09:02:12;;;;;;;2.03;0.80;;;22.20;93.20;;;;;;4951800;28;20031;-88
2021/08/03 09:04:43;;;;;;;2.03;0.93;;;22.10;93.10;;;;;;4951894;29;20391;-89
2021/08/03 09:07:10;;;;;;;2.63;0.90;;;22.20;92.90;;;;;;4953082;28;20027;-89
2021/08/03 09:09:44;;;;;;;2.55;0.70;;;22.40;92.80;;;;;;4951971;28;20039;-89
2021/08/03 09:12:11;;;;;;;1.52;0.50;;;22.50;91.10;;;;;;4951132;29;20023;-90
2021/08/03 09:14:42;;;;;;;1.17;0.60;;;22.60;91.40;;;;;;4953641;28;20021;-91
2021/08/03 09:17:09;;;;;;;2.03;0.60;;;22.60;92.20;;;;;;4951134;28;20034;-91
2021/08/03 09:19:40;;;;;;;2.53;0.55;;;22.50;89.40;;;;;;4950946;29;20102;-89
2021/08/03 09:22:18;;;;;;;3.40;0.75;;;22.50;88.70;;;;;;4940897;28;20031;-90
2021/08/03 09:24:47;;;;;;;2.47;0.80;;;22.60;89.90;;;;;;4948774;28;20391;-91
2021/08/03 09:27:37;;;;;;;2.00;0.90;;;22.60;90.40;;;;;;4947657;28;20495;-90
2021/08/03 09:30:07;;;;;;;1.98;0.70;;;22.70;89.80;;;;;;4949949;29;20035;-90
2021/08/03 09:32:35;;;;;;;;;;;22.70;91.20;;;;;;4949502;28;20392;-90
2021/08/03 09:35:30;;;;;;;2.15;0.80;;;22.60;87.20;;;;;;4950044;28;19924;-90
2021/08/03 09:37:57;;;;;;;1.73;0.55;;;22.70;88.50;;;;;;4937908;28;20071;-90
2021/08/03 09:40:24;;;;;;;3.45;0.80;;;22.80;88.60;;;;;;4950992;29;20039;-89
2021/08/03 09:43:00;;;;;;;3.33;0.88;;;22.80;85.60;;;;;;4950822;29;20023;-92
2021/08/03 09:45:27;;;;;;;4.00;0.80;;;23.00;85.60;;;;;;4949662;29;20384;-90
2021/08/03 09:48:08;;;;;;;2.55;1.10;;;23.20;86.60;;;;;;4950982;29;20391;-88
2021/08/03 09:51:01;;;;;;;4.07;0.90;;;23.00;87.00;;;;;;4947786;29;20050;-91
2021/08/03 09:53:50;;;;;;;3.47;0.95;;;23.10;85.20;;;;;;4946933;29;20031;-90
2021/08/03 09:56:28;;;;;;;1.73;0.73;;;23.00;85.40;;;;;;4951484;28;20129;-89
2021/08/03 09:59:00;;;;;;;2.35;0.70;;;23.00;81.10;;;;;;4948816;28;20093;-90
2021/08/03 10:01:40;;;;;;;2.85;0.80;;;23.00;82.90;;;;;;4953990;28;20090;-91
2021/08/03 10:04:10;;;;;;;2.15;0.73;;;23.10;84.90;;;;;;4950229;29;20035;-91
2021/08/03 10:06:37;;;;;;;6.20;1.05;;;23.10;82.80;;;;;;4950855;29;20031;-89
2021/08/03 10:09:06;;;;;;;3.03;0.70;;;23.10;80.30;;;;;;4948423;28;22135;-92
2021/08/03 10:11:32;;;;;;;2.28;0.70;;;23.20;80.80;;;;;;4964131;28;20151;-90
2021/08/03 10:13:58;;;;;;;2.80;1.17;;;23.40;79.80;;;;;;4950591;29;20042;-89
2021/08/03 10:16:24;;;;;;;2.65;0.52;;;23.60;79.10;;;;;;4951615;28;20027;-90
2021/08/03 10:18:55;;;;;;;3.38;0.80;;;23.80;80.40;;;;;;4950742;29;20039;-92
2021/08/03 10:21:43;;;;;;;2.00;0.63;;;23.90;78.70;;;;;;4948412;28;20019;-92
2021/08/03 10:24:14;;;;;;;2.67;0.88;;;24.00;78.10;;;;;;4937990;28;20035;-89
2021/08/03 10:26:40;;;;;;;1.13;0.73;;;24.10;82.50;;;;;;4949891;29;20098;-91
2021/08/03 10:29:24;;;;;;;2.05;0.75;;;24.00;79.80;;;;;;4949415;29;20122;-90
2021/08/03 10:31:50;;;;;;;1.70;0.70;;;23.90;81.10;;;;;;4949397;29;20036;-91
2021/08/03 10:34:50;;;;;;;4.10;0.85;;;23.80;78.90;;;;;;4947791;28;20035;-91
2021/08/03 10:37:16;;;;;;;2.60;0.60;;;23.70;76.70;;;;;;4950008;29;20059;-91
2021/08/03 10:39:55;;;;;;;2.95;0.70;;;23.60;78.30;;;;;;4951687;28;20078;-91
2021/08/03 10:42:25;;;;;;;2.33;0.65;;;23.50;78.70;;;;;;4953495;28;20039;-90
2021/08/03 10:44:51;;;;;;;2.92;0.73;;;23.40;80.30;;;;;;4954761;28;20103;-90
2021/08/03 10:47:33;;;;;;;2.83;1.38;;;23.10;80.60;;;;;;4952942;29;20103;-89
2021/08/03 10:50:07;;;;;;;2.47;0.60;;;23.00;79.20;;;;;;4952288;29;20039;-90
2021/08/03 10:52:45;;;;;;;2.60;0.73;;;22.80;78.90;;;;;;4954124;28;20121;-90
2021/08/03 10:55:32;;;;;;;2.85;0.80;;;22.70;81.40;;;;;;4954250;28;20514;-89
2021/08/03 10:58:19;;;;;;;2.10;0.82;;;22.70;83.20;;;;;;4952262;28;20081;-89
2021/08/03 11:00:51;;;;;;;2.58;0.70;;;22.60;84.80;;;;;;4952074;28;20051;-91
2021/08/03 11:03:34;;;;;;;2.35;0.75;;;22.70;82.50;;;;;;4952510;29;20023;-91
2021/08/03 11:06:03;;;;;;;8.57;0.80;;;22.80;80.60;;;;;;4956246;28;20223;-89
2021/08/03 11:08:40;;;;;;;2.65;0.90;;;22.80;81.20;;;;;;4952470;28;20492;-91
2021/08/03 11:11:24;;;;;;;2.00;0.70;;;22.90;84.10;;;;;;4951598;29;20498;-90
2021/08/03 11:13:53;;;;;;;2.78;0.90;;;23.10;83.30;;;;;;4973600;28;20029;-90
2021/08/03 11:16:18;;;;;;;3.50;0.55;;;23.20;83.30;;;;;;4949011;29;20027;-90
2021/08/03 11:18:46;;;;;;;2.00;0.55;;;23.20;79.80;;;;;;4955739;28;20427;-89
2021/08/03 11:21:17;;;;;;;2.10;0.80;;;23.20;80.60;;;;;;4962022;28;20027;-88
2021/08/03 11:23:57;;;;;;;3.30;0.90;;;23.10;80.80;;;;;;4938721;28;20102;-90
2021/08/03 11:26:34;;;;;;;2.67;0.90;;;23.00;81.90;;;;;;4951732;29;20035;-89
2021/08/03 11:29:05;;;;;;;2.90;0.63;;;23.00;82.70;;;;;;4950046;29;20047;-91
2021/08/03 11:31:50;;;;;;;2.28;0.70;;;23.20;81.60;;;;;;4952656;29;20058;-90
2021/08/03 11:34:20;;;;;;;2.67;0.80;;;23.30;81.30;;;;;;4949221;28;20050;-91
2021/08/03 11:37:09;;;;;;;3.55;0.60;;;23.40;81.20;;;;;;4950909;28;20070;-90
2021/08/03 11:39:42;;;;;;;2.92;0.85;;;23.30;81.20;;;;;;4951795;29;20046;-89
2021/08/03 11:42:09;;;;;;;3.60;0.95;;;23.20;80.90;;;;;;4952127;28;20034;-89
2021/08/03 11:44:35;;;;;;;2.08;1.10;;;23.10;82.60;;;;;;4951357;28;20127;-89
2021/08/03 11:47:07;;;;;;;2.25;0.77;;;22.90;82.70;;;;;;4955041;28;20652;-89
2021/08/03 11:49:41;;;;;;;6.05;0.98;;;22.80;82.00;;;;;;4954129;28;20035;-89
2021/08/03 11:52:11;;;;;;;2.47;0.90;;;22.80;85.10;;;;;;4952185;28;20121;-91
2021/08/03 11:54:38;;;;;;;3.90;0.93;;;22.90;82.80;;;;;;4956672;28;20035;-90
2021/08/03 11:57:25;;;;;;;2.42;0.77;;;22.90;83.20;;;;;;4951747;28;20023;-91
2021/08/03 12:00:10;;;;;;;2.25;0.80;;;23.00;81.90;;;;;;4889995;29;20036;-90
2021/08/03 12:02:37;;;;;;;1.52;0.82;;;23.10;81.70;;;;;;4891784;29;20036;-91
2021/08/03 12:05:09;;;;;;;1.45;0.65;;;23.20;82.70;;;;;;4891455;29;20049;-90
2021/08/03 12:07:36;;;;;;;4.28;0.70;;;23.30;82.40;;;;;;4878403;29;20033;-91
2021/08/03 12:10:02;;;;;;;1.65;0.63;;;23.30;80.20;;;;;;4890592;29;20028;-91
2021/08/03 12:12:28;;;;;;;4.68;1.17;;;23.40;84.00;;;;;;4878339;29;20037;-92
2021/08/03 12:15:14;;;;;;;16.15;2.90;;;23.40;78.00;;;;;;4878802;29;20032;-90
2021/08/03 12:17:41;;;;;;;2.65;1.00;;;23.40;81.50;;;;;;4889858;29;20103;-91
2021/08/03 12:20:28;;;;;;;2.50;0.60;;;23.50;80.10;;;;;;4877751;29;20988;-91
2021/08/03 12:23:06;;;;;;;1.52;0.68;;;23.70;78.50;;;;;;4884049;29;20045;-92
2021/08/03 12:25:40;;;;;;;5.22;0.70;;;23.70;79.80;;;;;;4891296;29;20442;-90
2021/08/03 12:28:05;;;;;;;2.65;1.67;;;23.60;78.90;;;;;;4893394;29;20055;-89
2021/08/03 12:30:37;;;;;;;4.93;0.73;;;23.50;79.30;;;;;;4888981;29;20033;-90
2021/08/03 12:33:04;;;;;;;2.22;0.95;;;23.50;81.00;;;;;;4878162;29;20190;-90
2021/08/03 12:35:30;;;;;;;2.28;0.70;;;23.50;79.70;;;;;;4879794;29;20041;-91
2021/08/03 12:38:16;;;;;;;3.38;0.90;;;23.50;80.90;;;;;;4943969;29;20031;-92
2021/08/03 12:40:43;;;;;;;2.42;0.80;;;23.50;78.00;;;;;;4953579;28;20038;-89
2021/08/03 12:43:08;;;;;;;5.97;1.08;;;23.50;80.00;;;;;;4954177;28;20051;-92
2021/08/03 12:45:35;;;;;;;1.55;0.73;;;23.50;76.00;;;;;;4953286;28;20035;-92
2021/08/03 12:48:02;;;;;;;1.83;0.90;;;23.50;77.80;;;;;;4952942;28;20051;-90
2021/08/03 12:50:30;;;;;;;1.42;0.77;;;23.60;80.20;;;;;;4951630;29;20031;-90
2021/08/03 12:53:01;;;;;;;5.22;1.17;;;23.70;78.60;;;;;;4951304;28;20019;-90
2021/08/03 12:58:36;;;;;;;4.38;0.82;;;23.50;78.90;;;;;;4950264;29;20105;-92
2021/08/03 13:01:09;;;;;;;3.55;0.80;;;23.40;78.90;;;;;;4951351;29;20030;-90
2021/08/03 13:03:35;;;;;;;4.70;1.13;;;23.40;79.40;;;;;;4950586;28;20083;-91
2021/08/03 13:06:05;;;;;;;1.77;0.70;;;23.40;80.10;;;;;;4951463;29;20030;-91